Time;durP1;ratioP1;P1;durP2;ratioP2;P2;SDS_P1;SDS_P2;PMS_P1;PMS_P2;Temp;Humidity;BMP_temperature;BMP_pressure;BME280_temperature;BME280_humidity;BME280_pressure;Samples;Min_cycle;Max_cycle;Signal;HPM_P1;HPM_P2
2021/06/28 00:00:19;;;;;;;0.00;0.00;;;16.60;99.90;;;;;;5049993;28;20405;-81
2021/06/28 00:02:45;;;;;;;0.00;0.00;;;16.60;99.90;;;;;;5039759;28;20059;-82
2021/06/28 00:05:13;;;;;;;0.00;0.00;;;16.60;99.90;;;;;;5054801;28;20398;-82
2021/06/28 00:07:41;;;;;;;0.00;0.00;;;16.70;99.90;;;;;;5049559;28;20092;-82
2021/06/28 00:10:08;;;;;;;0.00;0.00;;;16.70;99.90;;;;;;5050439;28;20166;-81
2021/06/28 00:12:34;;;;;;;0.00;0.00;;;16.70;99.90;;;;;;5050071;28;20021;-81
2021/06/28 00:15:01;;;;;;;0.00;0.00;;;16.60;99.90;;;;;;5049441;28;20037;-82
2021/06/28 00:17:27;;;;;;;0.10;0.10;;;16.60;99.90;;;;;;5049250;28;20275;-82
2021/06/28 00:19:53;;;;;;;0.10;0.10;;;16.70;99.90;;;;;;5050106;28;20112;-82
2021/06/28 00:22:19;;;;;;;0.00;0.00;;;16.70;99.90;;;;;;5049741;28;20108;-82
2021/06/28 00:24:45;;;;;;;0.07;0.07;;;16.60;99.90;;;;;;5048914;28;20028;-81
2021/06/28 00:27:10;;;;;;;0.00;0.00;;;16.60;99.90;;;;;;5049856;28;20021;-81
2021/06/28 00:29:36;;;;;;;0.13;0.13;;;16.60;99.90;;;;;;5048439;28;20029;-82
2021/06/28 00:32:02;;;;;;;0.00;0.00;;;16.60;99.90;;;;;;5049281;28;20033;-82
2021/06/28 00:34:29;;;;;;;0.00;0.00;;;16.70;99.90;;;;;;5046976;28;20029;-82
2021/06/28 00:36:56;;;;;;;0.03;0.03;;;16.60;99.90;;;;;;5047732;28;20090;-82
2021/06/28 00:39:22;;;;;;;0.10;0.10;;;16.60;99.90;;;;;;5048953;28;20075;-82
2021/06/28 00:41:48;;;;;;;0.00;0.00;;;16.50;99.90;;;;;;5047900;28;20021;-83
2021/06/28 00:44:14;;;;;;;0.10;0.10;;;16.30;99.90;;;;;;5048430;28;20083;-82
2021/06/28 00:46:40;;;;;;;0.10;0.10;;;16.30;99.90;;;;;;5062290;28;20028;-82
2021/06/28 00:49:06;;;;;;;0.00;0.00;;;16.20;99.90;;;;;;5050317;28;20127;-82
2021/06/28 00:51:31;;;;;;;0.13;0.13;;;16.10;99.90;;;;;;5048512;28;20053;-82
2021/06/28 00:53:57;;;;;;;0.00;0.00;;;15.80;99.90;;;;;;5049403;28;20055;-82
2021/06/28 00:56:23;;;;;;;0.75;0.65;;;15.80;99.90;;;;;;5042374;28;20043;-81
2021/06/28 00:58:49;;;;;;;0.10;0.10;;;15.60;99.90;;;;;;5048411;28;20111;-81
2021/06/28 01:01:15;;;;;;;0.00;0.00;;;15.60;99.90;;;;;;5048572;28;20032;-81
2021/06/28 01:03:41;;;;;;;0.10;0.10;;;15.50;99.90;;;;;;5048635;28;20056;-81
2021/06/28 01:06:11;;;;;;;0.10;0.10;;;15.50;99.90;;;;;;5049252;28;20021;-81
2021/06/28 01:08:37;;;;;;;0.10;0.10;;;15.50;99.90;;;;;;5038590;28;20675;-81
2021/06/28 01:11:03;;;;;;;0.07;0.07;;;15.60;99.90;;;;;;5048416;28;20032;-82
2021/06/28 01:13:40;;;;;;;0.10;0.10;;;15.70;99.90;;;;;;5048642;28;20033;-82
2021/06/28 01:16:06;;;;;;;0.43;0.43;;;15.80;99.90;;;;;;5046428;28;20029;-82
2021/06/28 01:18:33;;;;;;;0.10;0.10;;;15.70;99.90;;;;;;5049055;28;20021;-82
2021/06/28 01:21:00;;;;;;;0.10;0.10;;;15.80;99.90;;;;;;5047443;28;20406;-82
2021/06/28 01:23:30;;;;;;;0.00;0.00;;;15.80;99.90;;;;;;5048922;28;20052;-82
2021/06/28 01:26:04;;;;;;;0.10;0.10;;;15.60;99.90;;;;;;5035700;28;20071;-82
2021/06/28 01:28:30;;;;;;;0.10;0.10;;;15.50;99.90;;;;;;5054967;28;20025;-82
2021/06/28 01:30:58;;;;;;;0.10;0.10;;;15.40;99.90;;;;;;5047450;28;20425;-82
2021/06/28 01:33:25;;;;;;;0.10;0.10;;;15.50;99.90;;;;;;5047502;28;20078;-82
2021/06/28 01:35:51;;;;;;;0.10;0.10;;;15.40;99.90;;;;;;5047627;28;20059;-82
2021/06/28 01:38:17;;;;;;;0.00;0.00;;;15.40;99.90;;;;;;5048267;28;20037;-81
2021/06/28 01:40:43;;;;;;;0.10;0.10;;;15.30;99.90;;;;;;5048257;28;20035;-82
2021/06/28 01:43:09;;;;;;;0.07;0.07;;;15.20;99.90;;;;;;5048762;28;20539;-81
2021/06/28 01:45:36;;;;;;;0.20;0.20;;;15.30;99.90;;;;;;5046078;28;20031;-82
2021/06/28 01:48:03;;;;;;;0.52;0.52;;;15.30;99.90;;;;;;5048679;28;20440;-81
2021/06/28 01:50:31;;;;;;;0.10;0.10;;;15.10;99.90;;;;;;5048499;28;20795;-81
2021/06/28 01:52:59;;;;;;;0.47;0.30;;;15.00;99.90;;;;;;5047355;28;20087;-81
2021/06/28 01:55:25;;;;;;;0.15;0.15;;;15.00;99.90;;;;;;5043076;28;20029;-81
2021/06/28 01:57:54;;;;;;;0.10;0.10;;;14.90;99.90;;;;;;5047105;28;20024;-82
2021/06/28 02:00:23;;;;;;;0.10;0.10;;;14.90;99.90;;;;;;5053364;28;20259;-82
2021/06/28 02:03:07;;;;;;;0.10;0.10;;;14.80;99.90;;;;;;5057072;28;20040;-82
2021/06/28 02:05:36;;;;;;;0.20;0.20;;;14.70;99.90;;;;;;5046823;28;20009;-81
2021/06/28 02:08:04;;;;;;;0.25;0.20;;;14.80;99.90;;;;;;5048441;28;20032;-81
2021/06/28 02:10:30;;;;;;;0.10;0.10;;;14.70;99.90;;;;;;5047868;28;20029;-81
2021/06/28 02:12:55;;;;;;;0.63;0.63;;;14.80;99.90;;;;;;5048347;28;20052;-82
2021/06/28 02:15:23;;;;;;;0.10;0.10;;;14.80;99.90;;;;;;5047866;28;20056;-81
2021/06/28 02:17:50;;;;;;;0.10;0.10;;;14.70;99.90;;;;;;5047845;28;20033;-82
2021/06/28 02:20:18;;;;;;;0.10;0.10;;;14.80;99.90;;;;;;5047932;28;20115;-82
2021/06/28 02:22:44;;;;;;;0.08;0.08;;;14.80;99.90;;;;;;5047265;28;20033;-82
2021/06/28 02:25:11;;;;;;;0.10;0.10;;;14.80;99.90;;;;;;5046495;28;20039;-82
2021/06/28 02:27:39;;;;;;;0.10;0.10;;;14.80;99.90;;;;;;5048606;28;20032;-82
2021/06/28 02:30:11;;;;;;;0.10;0.10;;;14.80;99.90;;;;;;5051818;28;20029;-82
2021/06/28 02:32:38;;;;;;;0.10;0.10;;;14.70;99.90;;;;;;5051001;28;20024;-82
2021/06/28 02:35:05;;;;;;;;;;;14.60;99.90;;;;;;5050939;28;20648;-82
2021/06/28 02:37:32;;;;;;;0.45;0.45;;;14.50;99.90;;;;;;5051312;28;20464;-81
2021/06/28 02:39:59;;;;;;;0.32;0.32;;;14.50;99.90;;;;;;5053217;28;20071;-81
2021/06/28 02:42:24;;;;;;;0.20;0.20;;;14.40;99.90;;;;;;5057735;28;20108;-81
2021/06/28 02:44:50;;;;;;;0.08;0.08;;;14.40;99.90;;;;;;5051210;28;20100;-81
2021/06/28 02:47:16;;;;;;;0.10;0.10;;;14.30;99.90;;;;;;5050974;28;20501;-81
2021/06/28 02:49:42;;;;;;;0.10;0.10;;;14.30;99.90;;;;;;5051230;28;20061;-81
2021/06/28 02:52:08;;;;;;;0.10;0.10;;;14.50;99.90;;;;;;5050827;28;20529;-80
2021/06/28 02:54:33;;;;;;;0.43;0.43;;;14.70;99.90;;;;;;5058368;28;20074;-81
2021/06/28 02:56:59;;;;;;;0.10;0.10;;;14.70;99.90;;;;;;5071236;28;20044;-81
2021/06/28 02:59:25;;;;;;;0.10;0.10;;;14.80;99.90;;;;;;5050921;28;20028;-81
2021/06/28 03:01:51;;;;;;;0.10;0.10;;;14.90;99.90;;;;;;5051130;28;20504;-81
2021/06/28 03:04:17;;;;;;;0.20;0.20;;;14.80;99.90;;;;;;5050301;28;20022;-81
2021/06/28 03:06:42;;;;;;;0.10;0.10;;;14.90;99.90;;;;;;5050980;28;20025;-81
2021/06/28 03:09:08;;;;;;;0.10;0.10;;;14.90;99.90;;;;;;5050598;28;20029;-81
2021/06/28 03:11:34;;;;;;;0.10;0.10;;;14.90;99.90;;;;;;5050728;28;20025;-81
2021/06/28 03:14:00;;;;;;;1.27;0.40;;;14.90;99.90;;;;;;5050712;28;20025;-81
2021/06/28 03:16:26;;;;;;;0.40;0.40;;;14.90;99.90;;;;;;5050064;28;20031;-81
2021/06/28 03:18:52;;;;;;;0.47;0.47;;;15.00;99.90;;;;;;5050822;28;20401;-81
2021/06/28 03:21:18;;;;;;;0.30;0.30;;;15.00;99.90;;;;;;5050673;28;20037;-81
2021/06/28 03:23:45;;;;;;;0.20;0.20;;;15.00;99.90;;;;;;5053669;28;20013;-81
2021/06/28 03:26:12;;;;;;;0.10;0.10;;;15.00;99.90;;;;;;5048833;28;20504;-81
2021/06/28 03:28:38;;;;;;;0.10;0.10;;;15.00;99.90;;;;;;5048674;28;20032;-81
2021/06/28 03:31:05;;;;;;;0.10;0.10;;;14.90;99.90;;;;;;5050010;28;20025;-81
2021/06/28 03:33:32;;;;;;;0.10;0.10;;;15.00;99.90;;;;;;5048010;28;20127;-81
2021/06/28 03:35:58;;;;;;;0.10;0.10;;;15.00;99.90;;;;;;5050336;28;20024;-81
2021/06/28 03:38:24;;;;;;;0.10;0.10;;;15.00;99.90;;;;;;5049275;28;20025;-81
2021/06/28 03:40:50;;;;;;;0.10;0.10;;;15.00;99.90;;;;;;5048566;28;20413;-81
2021/06/28 03:43:16;;;;;;;0.10;0.10;;;15.00;99.90;;;;;;5049218;28;20029;-81
2021/06/28 03:45:42;;;;;;;0.10;0.10;;;14.90;99.90;;;;;;5049344;28;20029;-81
2021/06/28 03:48:10;;;;;;;0.10;0.10;;;14.90;99.90;;;;;;5054758;28;20108;-81
2021/06/28 03:50:37;;;;;;;0.10;0.10;;;14.90;99.90;;;;;;5049198;28;20032;-81
2021/06/28 03:53:03;;;;;;;0.20;0.20;;;14.90;99.90;;;;;;5049232;28;20051;-81
2021/06/28 03:55:30;;;;;;;0.00;0.00;;;14.80;99.90;;;;;;5049485;28;20032;-81
2021/06/28 03:57:56;;;;;;;0.35;0.25;;;14.80;99.90;;;;;;5050060;28;20558;-81
2021/06/28 04:00:24;;;;;;;0.30;0.30;;;14.70;99.90;;;;;;5049186;28;20057;-81
2021/06/28 04:02:52;;;;;;;0.10;0.10;;;14.70;99.90;;;;;;5031385;28;20514;-81
2021/06/28 04:05:20;;;;;;;0.00;0.00;;;14.60;99.90;;;;;;5049930;28;20393;-81
2021/06/28 04:07:46;;;;;;;4.50;1.48;;;14.80;99.90;;;;;;5049048;28;20049;-81
2021/06/28 04:10:16;;;;;;;0.07;0.07;;;14.90;99.90;;;;;;5055560;28;20063;-81
2021/06/28 04:12:42;;;;;;;0.10;0.10;;;14.70;99.90;;;;;;5069475;28;20050;-81
2021/06/28 04:15:10;;;;;;;0.00;0.00;;;14.80;99.90;;;;;;5057004;28;20386;-81
2021/06/28 04:17:38;;;;;;;0.08;0.08;;;14.70;99.90;;;;;;5049190;28;20032;-81
2021/06/28 04:20:08;;;;;;;0.17;0.17;;;14.80;99.90;;;;;;5048843;28;20445;-81
2021/06/28 04:22:34;;;;;;;0.10;0.10;;;14.60;99.90;;;;;;5048921;28;20028;-81
2021/06/28 04:25:00;;;;;;;0.10;0.10;;;14.50;99.90;;;;;;5049146;28;20071;-81
2021/06/28 04:27:26;;;;;;;0.10;0.10;;;14.60;99.90;;;;;;5049073;28;20021;-82
2021/06/28 04:29:51;;;;;;;0.10;0.10;;;14.80;99.90;;;;;;5048722;28;20100;-82
2021/06/28 04:32:18;;;;;;;0.20;0.10;;;14.70;99.90;;;;;;5049475;28;20036;-82
2021/06/28 04:34:46;;;;;;;0.10;0.10;;;14.60;99.90;;;;;;5048413;28;20017;-82
2021/06/28 04:37:12;;;;;;;0.00;0.00;;;14.50;99.90;;;;;;5048184;28;20037;-82
2021/06/28 04:39:39;;;;;;;0.10;0.10;;;14.50;99.90;;;;;;5049006;28;20071;-82
2021/06/28 04:42:05;;;;;;;;;;;14.60;99.90;;;;;;5049193;28;20116;-82
2021/06/28 04:44:31;;;;;;;0.10;0.10;;;14.80;99.90;;;;;;5048894;28;19909;-82
2021/06/28 04:46:57;;;;;;;0.10;0.10;;;14.80;99.90;;;;;;5048743;28;20036;-81
2021/06/28 04:49:23;;;;;;;0.47;0.47;;;14.90;99.90;;;;;;5048359;28;20040;-82
2021/06/28 04:51:48;;;;;;;0.10;0.10;;;14.80;99.90;;;;;;5047894;28;20513;-82
2021/06/28 04:54:14;;;;;;;0.00;0.00;;;14.80;99.90;;;;;;5048749;28;20418;-82
2021/06/28 04:56:40;;;;;;;0.10;0.10;;;14.80;99.90;;;;;;5048436;28;20105;-82
2021/06/28 04:59:05;;;;;;;0.53;0.27;;;14.80;99.90;;;;;;5048590;28;20036;-82
2021/06/28 05:01:31;;;;;;;0.00;0.00;;;14.90;99.90;;;;;;5046011;28;20032;-82
2021/06/28 05:03:57;;;;;;;0.00;0.00;;;15.00;99.90;;;;;;5046255;28;20104;-83
2021/06/28 05:06:23;;;;;;;0.20;0.20;;;15.20;99.90;;;;;;5047376;28;20021;-81
2021/06/28 05:08:48;;;;;;;0.10;0.10;;;15.20;99.90;;;;;;5047037;28;20147;-81
2021/06/28 05:11:14;;;;;;;0.13;0.13;;;15.20;99.90;;;;;;5047812;28;20549;-81
2021/06/28 05:13:40;;;;;;;0.20;0.20;;;15.20;99.90;;;;;;5047776;28;20432;-80
2021/06/28 05:16:06;;;;;;;0.00;0.00;;;15.20;99.90;;;;;;5047445;28;20658;-81
2021/06/28 05:18:31;;;;;;;0.10;0.10;;;15.20;99.90;;;;;;5047870;28;20402;-81
2021/06/28 05:20:57;;;;;;;0.03;0.03;;;15.20;99.90;;;;;;5047268;28;20082;-81
2021/06/28 05:23:23;;;;;;;0.10;0.10;;;15.20;99.90;;;;;;5047632;28;20025;-82
2021/06/28 05:25:49;;;;;;;0.10;0.10;;;15.30;99.90;;;;;;5048220;28;20386;-82
2021/06/28 05:28:15;;;;;;;0.00;0.00;;;15.20;99.90;;;;;;5059021;28;20020;-81
2021/06/28 05:30:41;;;;;;;0.00;0.00;;;15.00;99.90;;;;;;5048034;28;20573;-81
2021/06/28 05:33:07;;;;;;;0.20;0.20;;;15.20;99.90;;;;;;5047842;28;20024;-81
2021/06/28 05:35:33;;;;;;;1.50;1.10;;;15.10;99.90;;;;;;5047504;28;20025;-81
2021/06/28 05:37:59;;;;;;;0.30;0.30;;;15.10;99.90;;;;;;5047368;28;20052;-81
2021/06/28 05:40:25;;;;;;;0.10;0.10;;;15.20;99.90;;;;;;5048254;28;20417;-80
2021/06/28 05:42:50;;;;;;;0.10;0.10;;;15.30;99.90;;;;;;5048173;28;20029;-81
2021/06/28 05:45:16;;;;;;;0.00;0.00;;;15.40;99.90;;;;;;5047658;28;20032;-81
2021/06/28 05:47:42;;;;;;;0.00;0.00;;;15.40;99.90;;;;;;5047112;28;20028;-83
2021/06/28 05:50:11;;;;;;;0.10;0.10;;;15.50;99.90;;;;;;5048163;28;20021;-82
2021/06/28 05:52:37;;;;;;;0.10;0.10;;;15.50;99.90;;;;;;5047746;28;20387;-84
2021/06/28 05:55:04;;;;;;;0.10;0.10;;;15.90;99.90;;;;;;5046761;28;20047;-84
2021/06/28 05:57:30;;;;;;;0.10;0.10;;;15.60;99.90;;;;;;5047906;28;20025;-84
2021/06/28 05:59:55;;;;;;;0.00;0.00;;;15.60;99.90;;;;;;5048027;28;20029;-85
2021/06/28 06:02:22;;;;;;;0.20;0.20;;;15.50;99.90;;;;;;5048148;28;20064;-85
2021/06/28 06:04:48;;;;;;;0.10;0.10;;;15.60;99.90;;;;;;5052180;28;20017;-85
2021/06/28 06:07:14;;;;;;;0.10;0.10;;;15.60;99.90;;;;;;5050950;28;20029;-85
2021/06/28 06:09:40;;;;;;;0.10;0.10;;;15.70;99.90;;;;;;5052161;28;20107;-84
2021/06/28 06:12:06;;;;;;;0.40;0.40;;;15.90;99.90;;;;;;5050904;28;20692;-85
2021/06/28 06:14:32;;;;;;;0.20;0.20;;;16.10;99.90;;;;;;5050741;28;20040;-85
2021/06/28 06:16:59;;;;;;;0.10;0.10;;;16.40;99.90;;;;;;5051876;28;20489;-85
2021/06/28 06:19:24;;;;;;;0.10;0.10;;;16.40;99.90;;;;;;5052042;28;20379;-84
2021/06/28 06:21:50;;;;;;;0.00;0.00;;;16.20;99.90;;;;;;5051736;28;20040;-84
2021/06/28 06:24:16;;;;;;;0.00;0.00;;;16.30;99.90;;;;;;5052018;28;20033;-84
2021/06/28 06:26:42;;;;;;;0.00;0.00;;;16.50;99.90;;;;;;5050416;28;20059;-82
2021/06/28 06:29:08;;;;;;;0.40;0.20;;;16.20;99.90;;;;;;5051793;28;20356;-82
2021/06/28 06:31:34;;;;;;;0.23;0.23;;;16.10;99.90;;;;;;5050405;28;20033;-81
2021/06/28 06:34:00;;;;;;;0.10;0.10;;;16.00;99.90;;;;;;5051719;28;20023;-83
2021/06/28 06:36:33;;;;;;;0.10;0.10;;;15.90;99.90;;;;;;5050286;28;20043;-81
2021/06/28 06:38:58;;;;;;;0.00;0.00;;;15.80;99.90;;;;;;5050490;28;20032;-81
2021/06/28 06:41:24;;;;;;;0.20;0.20;;;15.90;99.90;;;;;;5051107;28;20032;-81
2021/06/28 06:43:50;;;;;;;0.20;0.20;;;16.10;99.90;;;;;;5051175;28;20021;-81
2021/06/28 06:46:16;;;;;;;0.00;0.00;;;15.90;99.90;;;;;;5050725;28;20061;-82
2021/06/28 06:48:42;;;;;;;0.00;0.00;;;16.00;99.90;;;;;;5051547;28;20512;-82
2021/06/28 06:51:08;;;;;;;0.13;0.13;;;16.10;99.90;;;;;;5050532;28;20025;-82
2021/06/28 06:53:33;;;;;;;0.23;0.23;;;16.40;99.90;;;;;;5051289;28;20025;-81
2021/06/28 06:56:05;;;;;;;0.10;0.10;;;16.20;99.90;;;;;;5051112;28;20409;-82
2021/06/28 06:58:35;;;;;;;0.10;0.10;;;16.60;99.90;;;;;;5049625;28;20075;-82
2021/06/28 07:01:01;;;;;;;0.20;0.20;;;17.10;99.90;;;;;;5050797;28;20035;-82
2021/06/28 07:03:27;;;;;;;0.10;0.10;;;17.10;99.90;;;;;;5048448;28;20025;-80
2021/06/28 07:05:53;;;;;;;0.03;0.03;;;17.40;99.90;;;;;;5040145;28;20511;-81
2021/06/28 07:08:20;;;;;;;0.00;0.00;;;17.50;99.90;;;;;;5032315;28;20056;-80
2021/06/28 07:10:46;;;;;;;0.20;0.20;;;17.40;99.90;;;;;;5043942;28;20059;-80
2021/06/28 07:13:16;;;;;;;0.10;0.10;;;17.10;99.90;;;;;;5042159;28;20060;-80
2021/06/28 07:15:42;;;;;;;0.00;0.00;;;16.80;99.90;;;;;;5040869;28;20060;-80
2021/06/28 07:18:08;;;;;;;2.07;0.47;;;17.00;99.90;;;;;;5035633;28;20045;-80
2021/06/28 07:20:34;;;;;;;0.00;0.00;;;17.10;99.90;;;;;;5042625;28;20064;-80
2021/06/28 07:23:00;;;;;;;0.00;0.00;;;17.30;99.90;;;;;;5043902;28;20494;-80
2021/06/28 07:25:26;;;;;;;0.03;0.03;;;17.10;99.90;;;;;;5046279;28;20329;-80
2021/06/28 07:27:53;;;;;;;0.00;0.00;;;17.00;99.90;;;;;;5058093;28;20032;-79
2021/06/28 07:30:20;;;;;;;;;;;17.20;99.90;;;;;;5042332;28;20075;-80
2021/06/28 07:32:45;;;;;;;0.00;0.00;;;17.40;99.90;;;;;;5040514;28;19904;-80
2021/06/28 07:35:12;;;;;;;0.10;0.10;;;17.20;99.90;;;;;;5048826;28;20039;-80
2021/06/28 07:37:39;;;;;;;0.00;0.00;;;17.20;99.90;;;;;;5049993;28;20033;-80
2021/06/28 07:40:08;;;;;;;0.28;0.28;;;17.00;99.90;;;;;;5050018;28;20021;-80
2021/06/28 07:42:33;;;;;;;0.20;0.17;;;16.90;99.90;;;;;;5049754;28;20033;-81
2021/06/28 07:44:59;;;;;;;0.50;0.47;;;17.30;99.90;;;;;;5050131;28;20028;-80
2021/06/28 07:47:25;;;;;;;0.30;0.30;;;17.80;99.90;;;;;;5050034;28;20017;-80
2021/06/28 07:49:52;;;;;;;0.37;0.17;;;17.70;99.90;;;;;;5049796;28;20655;-80
2021/06/28 07:52:18;;;;;;;0.10;0.10;;;17.60;99.90;;;;;;5050011;28;20049;-80
2021/06/28 07:54:44;;;;;;;0.00;0.00;;;18.00;99.90;;;;;;5048457;28;20098;-80
2021/06/28 07:57:11;;;;;;;0.03;0.03;;;18.40;99.90;;;;;;5049944;28;20033;-81
2021/06/28 07:59:37;;;;;;;;;;;18.50;99.90;;;;;;5050055;28;20108;-80
2021/06/28 08:02:04;;;;;;;0.10;0.10;;;19.10;99.90;;;;;;5049555;28;20004;-81
2021/06/28 08:04:30;;;;;;;0.05;0.05;;;19.30;99.90;;;;;;5049862;28;20028;-81
2021/06/28 08:06:57;;;;;;;0.32;0.20;;;19.90;99.90;;;;;;5048108;28;20029;-80
2021/06/28 08:09:23;;;;;;;0.00;0.00;;;20.10;99.90;;;;;;5049687;28;20128;-80
2021/06/28 08:11:49;;;;;;;0.00;0.00;;;21.00;99.90;;;;;;5049592;28;20025;-81
2021/06/28 08:14:17;;;;;;;0.00;0.00;;;20.90;99.90;;;;;;5049767;28;20119;-81
2021/06/28 08:16:43;;;;;;;0.08;0.08;;;22.20;99.90;;;;;;5049421;28;20028;-81
2021/06/28 08:19:11;;;;;;;0.00;0.00;;;24.40;99.90;;;;;;5049648;28;20071;-82
2021/06/28 08:21:38;;;;;;;0.00;0.00;;;25.50;99.90;;;;;;5048315;28;20032;-82
2021/06/28 08:24:06;;;;;;;0.00;0.00;;;27.80;99.90;;;;;;5049475;28;20052;-82
2021/06/28 08:26:33;;;;;;;0.00;0.00;;;25.20;99.90;;;;;;5048827;28;20025;-82
2021/06/28 08:29:02;;;;;;;0.05;0.05;;;24.50;99.90;;;;;;5049004;28;20017;-82
2021/06/28 08:31:29;;;;;;;0.28;0.20;;;23.20;99.90;;;;;;5048013;28;20033;-81
2021/06/28 08:33:55;;;;;;;0.00;0.00;;;22.30;99.90;;;;;;5049162;28;20470;-81
2021/06/28 08:36:21;;;;;;;0.00;0.00;;;22.30;99.90;;;;;;5047857;28;20086;-81
2021/06/28 08:38:47;;;;;;;0.00;0.00;;;22.30;99.90;;;;;;5049126;28;20033;-82
2021/06/28 08:41:17;;;;;;;0.00;0.00;;;21.70;99.90;;;;;;5047520;28;20170;-82
2021/06/28 08:43:46;;;;;;;0.00;0.00;;;21.80;99.90;;;;;;5049039;28;20032;-81
2021/06/28 08:46:16;;;;;;;0.00;0.00;;;24.20;99.90;;;;;;5047479;28;20034;-82
2021/06/28 08:48:44;;;;;;;1.75;0.22;;;28.30;99.90;;;;;;5049171;28;20036;-82
2021/06/28 08:51:11;;;;;;;0.00;0.00;;;27.80;99.90;;;;;;5048584;28;20663;-82
2021/06/28 08:53:37;;;;;;;1.45;0.55;;;27.80;99.90;;;;;;5048875;28;20036;-82
2021/06/28 08:56:08;;;;;;;0.10;0.10;;;27.50;99.90;;;;;;5048876;28;20157;-82
2021/06/28 08:58:34;;;;;;;0.00;0.00;;;27.40;99.90;;;;;;5048783;28;20021;-82
2021/06/28 09:01:00;;;;;;;0.00;0.00;;;25.60;99.90;;;;;;5048583;28;20025;-82
2021/06/28 09:03:26;;;;;;;0.00;0.00;;;26.30;99.90;;;;;;5048987;28;20028;-82
2021/06/28 09:06:03;;;;;;;0.00;0.00;;;26.90;99.90;;;;;;5047212;28;20029;-82
2021/06/28 09:08:30;;;;;;;0.00;0.00;;;25.10;99.90;;;;;;5048665;28;20051;-82
2021/06/28 09:10:56;;;;;;;0.00;0.00;;;26.30;99.90;;;;;;5048714;28;20112;-82
2021/06/28 09:13:42;;;;;;;0.00;0.00;;;21.90;99.90;;;;;;5048440;28;20104;-82
2021/06/28 09:29:12;;;;;;;0.00;0.00;;;23.10;99.90;;;;;;5023164;27;2603331;-85
2021/06/28 09:31:45;;;;;;;0.00;0.00;;;20.90;99.90;;;;;;5095402;28;20034;-83
2021/06/28 09:34:27;;;;;;;0.10;0.10;;;20.70;95.50;;;;;;5099795;28;20054;-84
2021/06/28 09:36:58;;;;;;;0.15;0.15;;;20.30;1.00;;;;;;5105072;28;20108;-84
2021/06/28 09:39:33;;;;;;;0.00;0.00;;;20.70;99.90;;;;;;5092463;28;20021;-84
2021/06/28 09:42:08;;;;;;;0.00;0.00;;;23.20;1.00;;;;;;5095089;28;20016;-85
2021/06/28 09:44:40;;;;;;;0.00;0.00;;;27.40;1.00;;;;;;5097005;28;20097;-85
2021/06/28 09:47:14;;;;;;;0.00;0.00;;;27.80;1.00;;;;;;5092034;28;20028;-85
2021/06/28 09:49:42;;;;;;;0.00;0.00;;;30.90;99.90;;;;;;5099900;28;20039;-85
2021/06/28 09:52:08;;;;;;;0.00;0.00;;;28.20;99.90;;;;;;5094508;28;20413;-85
2021/06/28 09:54:37;;;;;;;0.10;0.10;;;26.50;99.90;;;;;;5088730;28;20028;-86
2021/06/28 09:57:07;;;;;;;0.00;0.00;;;26.70;99.90;;;;;;5096539;28;20036;-86
2021/06/28 09:59:37;;;;;;;0.38;0.28;;;31.80;99.90;;;;;;5098723;28;20028;-86
2021/06/28 10:02:16;;;;;;;0.30;0.20;;;30.60;99.90;;;;;;5096828;28;20020;-84
2021/06/28 10:04:55;;;;;;;0.00;0.00;;;31.50;99.90;;;;;;5090416;28;20170;-85
2021/06/28 10:07:36;;;;;;;0.00;0.00;;;33.00;99.90;;;;;;5093037;28;20404;-86
2021/06/28 10:10:16;;;;;;;0.00;0.00;;;34.60;99.90;;;;;;5093505;28;20036;-86
2021/06/28 10:12:45;;;;;;;0.00;0.00;;;35.00;99.90;;;;;;5099720;28;20028;-86
2021/06/28 10:15:13;;;;;;;0.00;0.00;;;31.30;99.90;;;;;;5097237;28;20027;-86
2021/06/28 10:17:39;;;;;;;0.00;0.00;;;33.50;99.90;;;;;;5097099;28;20070;-87
2021/06/28 10:20:09;;;;;;;0.00;0.00;;;32.80;99.90;;;;;;5094251;28;20048;-87
2021/06/28 10:22:37;;;;;;;0.00;0.00;;;29.10;99.90;;;;;;5093586;28;20107;-87
2021/06/28 10:25:06;;;;;;;0.00;0.00;;;29.40;99.90;;;;;;5090672;28;20104;-87
2021/06/28 10:27:34;;;;;;;0.00;0.00;;;33.60;99.90;;;;;;5089305;28;20655;-87
2021/06/28 10:30:00;;;;;;;0.00;0.00;;;32.80;99.90;;;;;;5070750;28;20493;-88
2021/06/28 10:32:30;;;;;;;0.00;0.00;;;33.60;99.90;;;;;;5080893;28;20067;-86
2021/06/28 10:34:58;;;;;;;0.88;0.77;;;33.60;99.90;;;;;;5071686;28;20039;-86
2021/06/28 10:37:41;;;;;;;0.00;0.00;;;34.60;99.90;;;;;;5066713;28;20031;-86
2021/06/28 10:40:11;;;;;;;0.00;0.00;;;34.40;99.90;;;;;;5064872;28;20111;-86
2021/06/28 10:42:41;;;;;;;0.00;0.00;;;35.40;99.90;;;;;;5057771;28;20021;-85
2021/06/28 10:45:10;;;;;;;0.00;0.00;;;29.90;99.90;;;;;;5062371;28;20074;-86
2021/06/28 10:47:40;;;;;;;0.00;0.00;;;30.00;99.90;;;;;;5067400;28;20055;-85
2021/06/28 10:50:09;;;;;;;0.00;0.00;;;28.10;99.90;;;;;;5085759;28;20059;-85
2021/06/28 10:52:37;;;;;;;0.00;0.00;;;27.20;99.90;;;;;;5064664;28;20056;-86
2021/06/28 10:55:26;;;;;;;0.00;0.00;;;27.10;99.90;;;;;;5064541;28;20029;-86
2021/06/28 10:57:54;;;;;;;0.00;0.00;;;27.20;99.90;;;;;;5067809;28;20045;-86
2021/06/28 11:00:49;;;;;;;0.40;0.13;;;30.30;99.90;;;;;;5080429;28;20028;-86
2021/06/28 11:15:24;;;;;;;0.15;0.13;;;26.40;99.90;;;;;;5108070;27;20391;-87
2021/06/28 11:17:52;;;;;;;0.10;0.05;;;25.60;99.90;;;;;;5089949;28;20028;-86
2021/06/28 11:20:21;;;;;;;0.00;0.00;;;25.40;99.90;;;;;;5101178;28;20388;-85
2021/06/28 11:23:02;;;;;;;0.00;0.00;;;24.90;99.90;;;;;;5097364;28;20107;-85
2021/06/28 11:25:37;;;;;;;0.00;0.00;;;28.70;99.90;;;;;;5080433;28;20036;-85
2021/06/28 11:28:03;;;;;;;2.70;0.22;;;31.40;99.90;;;;;;5086892;28;20073;-84
2021/06/28 11:30:37;;;;;;;0.00;0.00;;;31.40;99.90;;;;;;5112701;28;20031;-84
2021/06/28 11:33:10;;;;;;;0.10;0.10;;;30.90;99.90;;;;;;5098264;28;20353;-85
2021/06/28 11:35:38;;;;;;;0.10;0.10;;;27.50;99.90;;;;;;5104064;28;20085;-85
2021/06/28 11:38:35;;;;;;;0.32;0.15;;;25.40;99.90;;;;;;5097178;28;20047;-85
2021/06/28 11:41:10;;;;;;;0.00;0.00;;;24.70;99.90;;;;;;5104506;28;20741;-85
2021/06/28 11:43:40;;;;;;;0.00;0.00;;;24.50;99.90;;;;;;5104540;28;20027;-85
2021/06/28 11:46:12;;;;;;;0.00;0.00;;;24.30;99.90;;;;;;5097111;28;20039;-85
2021/06/28 11:48:56;;;;;;;0.00;0.00;;;23.60;99.90;;;;;;5104745;28;20020;-85
2021/06/28 11:51:34;;;;;;;0.25;0.00;;;23.70;99.90;;;;;;5084009;28;20015;-85
2021/06/28 11:54:04;;;;;;;0.00;0.00;;;24.10;99.90;;;;;;5109425;28;20042;-85
2021/06/28 11:56:54;;;;;;;0.10;0.10;;;23.50;99.90;;;;;;5114611;27;20107;-85
2021/06/28 11:59:22;;;;;;;0.10;0.10;;;23.30;99.90;;;;;;5091819;28;20047;-85
2021/06/28 12:01:53;;;;;;;0.05;0.05;;;23.20;99.90;;;;;;5079455;28;20047;-87
2021/06/28 12:04:31;;;;;;;0.08;0.08;;;23.50;99.90;;;;;;5110122;28;20099;-85
2021/06/28 12:06:57;;;;;;;0.00;0.00;;;22.90;99.90;;;;;;5081079;28;20054;-85
2021/06/28 12:09:27;;;;;;;;;;;22.80;99.90;;;;;;5076089;28;20048;-85
2021/06/28 12:11:58;;;;;;;0.00;0.00;;;22.60;99.90;;;;;;5060067;28;20377;-84
2021/06/28 12:14:31;;;;;;;0.00;0.00;;;22.70;99.90;;;;;;5067078;28;20080;-84
2021/06/28 12:16:58;;;;;;;0.03;0.03;;;22.90;99.90;;;;;;5072015;28;20078;-84
2021/06/28 12:19:24;;;;;;;;;;;23.10;99.90;;;;;;5069131;28;20104;-84
2021/06/28 12:21:50;;;;;;;0.05;0.05;;;22.90;99.90;;;;;;5072208;28;19915;-84
2021/06/28 12:24:19;;;;;;;0.20;0.20;;;23.20;99.90;;;;;;5065305;28;20040;-84
2021/06/28 12:27:02;;;;;;;0.20;0.20;;;23.40;99.90;;;;;;5058983;28;20263;-84
2021/06/28 12:43:15;;;;;;;0.00;0.00;;;23.10;99.90;;;;;;5083641;27;20799;-86
2021/06/28 12:45:46;;;;;;;0.10;0.10;;;23.60;99.90;;;;;;5087837;28;20024;-85
2021/06/28 12:48:23;;;;;;;0.05;0.05;;;23.70;99.90;;;;;;5087765;28;20073;-86
2021/06/28 12:51:09;;;;;;;0.03;0.03;;;24.30;99.90;;;;;;5080476;28;20135;-87
2021/06/28 12:53:35;;;;;;;;;;;24.70;99.90;;;;;;5085064;28;20587;-86
2021/06/28 12:56:08;;;;;;;;;;;24.30;99.90;;;;;;5077615;28;19991;-86
2021/06/28 12:58:48;;;;;;;0.00;0.00;;;23.90;99.90;;;;;;5076974;28;19908;-86
2021/06/28 13:01:36;;;;;;;6.30;0.15;;;23.50;99.90;;;;;;5097797;28;20028;-87
2021/06/28 13:04:23;;;;;;;0.00;0.00;;;23.10;99.90;;;;;;5086234;28;20035;-85
2021/06/28 13:06:49;;;;;;;0.00;0.00;;;22.50;99.90;;;;;;5085240;28;20669;-85
2021/06/28 13:09:17;;;;;;;0.00;0.00;;;22.80;99.90;;;;;;5082909;28;20021;-85
2021/06/28 13:12:01;;;;;;;0.10;0.10;;;23.40;99.90;;;;;;5088177;28;20031;-86
2021/06/28 13:14:37;;;;;;;0.10;0.10;;;23.30;99.90;;;;;;5086666;28;20093;-86
2021/06/28 13:19:52;;;;;;;0.03;0.03;;;22.50;99.90;;;;;;5084008;28;20031;-87
2021/06/28 13:22:18;;;;;;;0.03;0.03;;;22.20;99.90;;;;;;5085429;28;20496;-85
2021/06/28 13:24:53;;;;;;;0.30;0.10;;;23.00;99.90;;;;;;5083640;28;20270;-86
2021/06/28 13:27:28;;;;;;;0.00;0.00;;;22.70;99.90;;;;;;5084313;28;20048;-86
2021/06/28 13:29:54;;;;;;;0.13;0.08;;;23.20;99.90;;;;;;5084496;28;20042;-85
2021/06/28 13:32:28;;;;;;;0.00;0.00;;;23.40;99.90;;;;;;5086561;28;20404;-86
2021/06/28 13:34:56;;;;;;;0.10;0.10;;;22.90;99.90;;;;;;5070320;28;20056;-86